sensor_id;sensor_type;location;lat;lon;timestamp;pressure;altitude;pressure_sealevel;temperature;humidity
66801;BME280;53703;50.326;19.122;2023-03-11T00:00:39;96056.70;;;16.04;50.02
66801;BME280;53703;50.326;19.122;2023-03-11T00:03:37;96056.55;;;16.05;49.96
66801;BME280;53703;50.326;19.122;2023-03-11T00:06:30;96054.81;;;16.05;50.17
66801;BME280;53703;50.326;19.122;2023-03-11T00:09:24;96047.04;;;16.04;50.06
66801;BME280;53703;50.326;19.122;2023-03-11T00:12:17;96039.64;;;16.04;50.11
66801;BME280;53703;50.326;19.122;2023-03-11T00:15:13;96041.92;;;16.03;50.16
66801;BME280;53703;50.326;19.122;2023-03-11T00:18:07;96048.07;;;16.03;50.01
66801;BME280;53703;50.326;19.122;2023-03-11T00:20:48;96051.45;;;16.01;50.23
66801;BME280;53703;50.326;19.122;2023-03-11T00:23:41;96053.42;;;16.02;50.18
66801;BME280;53703;50.326;19.122;2023-03-11T00:26:35;96052.00;;;16.01;50.16
66801;BME280;53703;50.326;19.122;2023-03-11T00:29:29;96053.33;;;16.02;50.16
66801;BME280;53703;50.326;19.122;2023-03-11T00:32:22;96049.80;;;16.00;50.17
66801;BME280;53703;50.326;19.122;2023-03-11T00:35:19;96045.10;;;15.97;50.41
66801;BME280;53703;50.326;19.122;2023-03-11T00:38:16;96037.48;;;15.98;50.22
66801;BME280;53703;50.326;19.122;2023-03-11T00:41:10;96034.02;;;15.98;50.35
66801;BME280;53703;50.326;19.122;2023-03-11T00:44:04;96028.61;;;15.96;50.44
66801;BME280;53703;50.326;19.122;2023-03-11T00:46:58;96025.23;;;15.95;50.38
66801;BME280;53703;50.326;19.122;2023-03-11T00:49:51;96028.70;;;15.94;50.20
66801;BME280;53703;50.326;19.122;2023-03-11T00:52:46;96027.83;;;15.95;50.08
66801;BME280;53703;50.326;19.122;2023-03-11T00:55:40;96025.08;;;15.95;49.96
66801;BME280;53703;50.326;19.122;2023-03-11T00:58:34;96026.02;;;15.95;49.91
66801;BME280;53703;50.326;19.122;2023-03-11T01:01:27;96030.02;;;15.95;49.95
66801;BME280;53703;50.326;19.122;2023-03-11T01:04:21;96033.56;;;15.95;50.07
66801;BME280;53703;50.326;19.122;2023-03-11T01:07:15;96032.08;;;15.93;49.88
66801;BME280;53703;50.326;19.122;2023-03-11T01:10:11;96031.02;;;15.92;49.95
66801;BME280;53703;50.326;19.122;2023-03-11T01:13:05;96028.91;;;15.91;49.89
66801;BME280;53703;50.326;19.122;2023-03-11T01:15:59;96023.87;;;15.92;49.77
66801;BME280;53703;50.326;19.122;2023-03-11T01:18:53;96024.52;;;15.92;49.76
66801;BME280;53703;50.326;19.122;2023-03-11T01:21:47;96018.14;;;15.91;49.78
66801;BME280;53703;50.326;19.122;2023-03-11T01:24:29;96014.69;;;15.90;49.78
66801;BME280;53703;50.326;19.122;2023-03-11T01:27:23;96019.96;;;15.89;49.82
66801;BME280;53703;50.326;19.122;2023-03-11T01:30:19;96020.37;;;15.88;50.11
66801;BME280;53703;50.326;19.122;2023-03-11T01:33:17;96023.65;;;15.90;49.98
66801;BME280;53703;50.326;19.122;2023-03-11T01:36:12;96025.23;;;15.89;49.86
66801;BME280;53703;50.326;19.122;2023-03-11T01:39:05;96023.42;;;15.86;50.29
66801;BME280;53703;50.326;19.122;2023-03-11T01:41:59;96028.06;;;15.88;50.10
66801;BME280;53703;50.326;19.122;2023-03-11T01:44:53;96030.90;;;15.87;50.14
66801;BME280;53703;50.326;19.122;2023-03-11T01:47:47;96032.38;;;15.87;50.23
66801;BME280;53703;50.326;19.122;2023-03-11T01:50:45;96034.73;;;15.87;50.28
66801;BME280;53703;50.326;19.122;2023-03-11T01:53:39;96034.52;;;15.87;50.39
66801;BME280;53703;50.326;19.122;2023-03-11T01:56:33;96034.27;;;15.86;50.18
66801;BME280;53703;50.326;19.122;2023-03-11T01:59:31;96026.73;;;15.86;50.23
66801;BME280;53703;50.326;19.122;2023-03-11T02:02:33;96025.70;;;15.87;50.27
66801;BME280;53703;50.326;19.122;2023-03-11T02:05:29;96019.59;;;15.87;50.23
66801;BME280;53703;50.326;19.122;2023-03-11T02:08:22;96019.50;;;15.86;50.26
66801;BME280;53703;50.326;19.122;2023-03-11T02:11:20;96020.98;;;15.86;50.21
66801;BME280;53703;50.326;19.122;2023-03-11T02:14:16;96023.04;;;15.85;50.11
66801;BME280;53703;50.326;19.122;2023-03-11T02:17:10;96018.73;;;15.84;49.99
66801;BME280;53703;50.326;19.122;2023-03-11T02:20:17;96017.55;;;15.84;50.04
66801;BME280;53703;50.326;19.122;2023-03-11T02:23:15;96017.08;;;15.84;50.03
66801;BME280;53703;50.326;19.122;2023-03-11T02:26:15;96012.21;;;15.83;50.01
66801;BME280;53703;50.326;19.122;2023-03-11T02:29:11;96015.66;;;15.82;49.94
66801;BME280;53703;50.326;19.122;2023-03-11T02:32:09;96016.06;;;15.82;49.90
66801;BME280;53703;50.326;19.122;2023-03-11T02:35:03;96019.13;;;15.81;50.18
66801;BME280;53703;50.326;19.122;2023-03-11T02:37:57;96020.95;;;15.80;50.01
66801;BME280;53703;50.326;19.122;2023-03-11T02:40:55;96020.87;;;15.80;50.01
66801;BME280;53703;50.326;19.122;2023-03-11T02:43:49;96018.98;;;15.80;50.07
66801;BME280;53703;50.326;19.122;2023-03-11T02:46:42;96024.49;;;15.79;50.06
66801;BME280;53703;50.326;19.122;2023-03-11T02:49:37;96025.76;;;15.78;49.97
66801;BME280;53703;50.326;19.122;2023-03-11T02:52:32;96035.88;;;15.79;49.85
66801;BME280;53703;50.326;19.122;2023-03-11T02:55:26;96036.90;;;15.78;49.78
66801;BME280;53703;50.326;19.122;2023-03-11T02:58:20;96034.23;;;15.79;49.83
66801;BME280;53703;50.326;19.122;2023-03-11T03:01:14;96036.99;;;15.78;50.04
66801;BME280;53703;50.326;19.122;2023-03-11T03:04:08;96037.92;;;15.77;49.89
66801;BME280;53703;50.326;19.122;2023-03-11T03:07:01;96036.44;;;15.78;49.96
66801;BME280;53703;50.326;19.122;2023-03-11T03:09:55;96042.64;;;15.77;50.14
66801;BME280;53703;50.326;19.122;2023-03-11T03:12:49;96046.41;;;15.76;50.17
66801;BME280;53703;50.326;19.122;2023-03-11T03:15:42;96049.86;;;15.77;50.03
66801;BME280;53703;50.326;19.122;2023-03-11T03:18:36;96048.21;;;15.77;50.07
66801;BME280;53703;50.326;19.122;2023-03-11T03:21:30;96048.77;;;15.76;49.98
66801;BME280;53703;50.326;19.122;2023-03-11T03:24:23;96052.08;;;15.75;50.04
66801;BME280;53703;50.326;19.122;2023-03-11T03:27:17;96053.73;;;15.76;50.21
66801;BME280;53703;50.326;19.122;2023-03-11T03:30:12;96053.10;;;15.74;50.15
66801;BME280;53703;50.326;19.122;2023-03-11T03:33:06;96059.30;;;15.73;50.13
66801;BME280;53703;50.326;19.122;2023-03-11T03:36:01;96061.73;;;15.74;50.17
66801;BME280;53703;50.326;19.122;2023-03-11T03:39:06;96068.98;;;15.74;50.08
66801;BME280;53703;50.326;19.122;2023-03-11T03:41:59;96065.13;;;15.72;49.92
66801;BME280;53703;50.326;19.122;2023-03-11T03:44:53;96065.76;;;15.71;49.99
66801;BME280;53703;50.326;19.122;2023-03-11T03:47:46;96064.50;;;15.70;50.44
66801;BME280;53703;50.326;19.122;2023-03-11T03:50:41;96064.67;;;15.68;50.39
66801;BME280;53703;50.326;19.122;2023-03-11T03:53:35;96066.79;;;15.68;50.39
66801;BME280;53703;50.326;19.122;2023-03-11T03:56:29;96066.40;;;15.66;50.59
66801;BME280;53703;50.326;19.122;2023-03-11T03:59:22;96064.98;;;15.67;50.53
66801;BME280;53703;50.326;19.122;2023-03-11T04:02:16;96064.03;;;15.69;50.34
66801;BME280;53703;50.326;19.122;2023-03-11T04:05:11;96066.63;;;15.67;50.28
66801;BME280;53703;50.326;19.122;2023-03-11T04:08:05;96068.21;;;15.67;50.23
66801;BME280;53703;50.326;19.122;2023-03-11T04:11:02;96068.68;;;15.67;50.11
66801;BME280;53703;50.326;19.122;2023-03-11T04:13:55;96067.03;;;15.67;50.07
66801;BME280;53703;50.326;19.122;2023-03-11T04:16:49;96067.42;;;15.67;50.09
66801;BME280;53703;50.326;19.122;2023-03-11T04:19:43;96071.44;;;15.64;50.17
66801;BME280;53703;50.326;19.122;2023-03-11T04:22:36;96072.14;;;15.63;50.33
66801;BME280;53703;50.326;19.122;2023-03-11T04:25:30;96082.90;;;15.62;50.33
66801;BME280;53703;50.326;19.122;2023-03-11T04:28:25;96071.75;;;15.60;50.36
66801;BME280;53703;50.326;19.122;2023-03-11T04:31:19;96067.12;;;15.60;50.32
66801;BME280;53703;50.326;19.122;2023-03-11T04:34:12;96063.66;;;15.62;50.53
66801;BME280;53703;50.326;19.122;2023-03-11T04:37:06;96062.16;;;15.62;50.31
66801;BME280;53703;50.326;19.122;2023-03-11T04:40:00;96064.05;;;15.62;50.48
66801;BME280;53703;50.326;19.122;2023-03-11T04:42:57;96074.89;;;15.60;50.68
66801;BME280;53703;50.326;19.122;2023-03-11T04:45:51;96084.63;;;15.61;50.42
66801;BME280;53703;50.326;19.122;2023-03-11T04:48:45;96087.38;;;15.60;50.30
66801;BME280;53703;50.326;19.122;2023-03-11T04:51:39;96083.06;;;15.58;50.41
66801;BME280;53703;50.326;19.122;2023-03-11T04:54:32;96085.89;;;15.60;50.41
66801;BME280;53703;50.326;19.122;2023-03-11T04:57:26;96086.44;;;15.57;50.49
66801;BME280;53703;50.326;19.122;2023-03-11T05:00:21;96088.73;;;15.55;50.16
66801;BME280;53703;50.326;19.122;2023-03-11T05:03:16;96089.73;;;15.58;50.34
66801;BME280;53703;50.326;19.122;2023-03-11T05:06:10;96092.10;;;15.58;50.09
66801;BME280;53703;50.326;19.122;2023-03-11T05:09:04;96090.52;;;15.58;51.29
66801;BME280;53703;50.326;19.122;2023-03-11T05:11:58;96087.92;;;15.62;51.04
66801;BME280;53703;50.326;19.122;2023-03-11T05:14:52;96087.14;;;15.58;50.61
66801;BME280;53703;50.326;19.122;2023-03-11T05:17:46;96097.13;;;15.55;50.73
66801;BME280;53703;50.326;19.122;2023-03-11T05:20:40;96099.64;;;15.53;50.66
66801;BME280;53703;50.326;19.122;2023-03-11T05:23:33;96099.17;;;15.54;50.45
66801;BME280;53703;50.326;19.122;2023-03-11T05:26:28;96097.84;;;15.56;50.39
66801;BME280;53703;50.326;19.122;2023-03-11T05:29:22;96112.14;;;15.54;50.18
66801;BME280;53703;50.326;19.122;2023-03-11T05:32:16;96112.77;;;15.53;50.24
66801;BME280;53703;50.326;19.122;2023-03-11T05:35:11;96116.07;;;15.52;50.63
66801;BME280;53703;50.326;19.122;2023-03-11T05:38:04;96118.10;;;15.50;50.37
66801;BME280;53703;50.326;19.122;2023-03-11T05:40:59;96119.14;;;15.48;50.43
66801;BME280;53703;50.326;19.122;2023-03-11T05:43:53;96127.98;;;15.46;50.63
66801;BME280;53703;50.326;19.122;2023-03-11T05:46:47;96128.71;;;15.45;50.74
66801;BME280;53703;50.326;19.122;2023-03-11T05:49:40;96133.35;;;15.46;50.96
66801;BME280;53703;50.326;19.122;2023-03-11T05:52:34;96144.50;;;15.46;50.89
66801;BME280;53703;50.326;19.122;2023-03-11T05:55:27;96146.45;;;15.46;50.98
66801;BME280;53703;50.326;19.122;2023-03-11T05:58:21;96156.67;;;15.41;50.93
66801;BME280;53703;50.326;19.122;2023-03-11T06:01:17;96166.17;;;15.44;50.98
66801;BME280;53703;50.326;19.122;2023-03-11T06:04:12;96176.23;;;15.45;50.99
66801;BME280;53703;50.326;19.122;2023-03-11T06:07:06;96179.28;;;15.44;50.80
66801;BME280;53703;50.326;19.122;2023-03-11T06:10:00;96185.17;;;15.41;50.70
66801;BME280;53703;50.326;19.122;2023-03-11T06:12:53;96193.34;;;15.47;51.24
66801;BME280;53703;50.326;19.122;2023-03-11T06:15:47;96196.41;;;15.48;51.47
66801;BME280;53703;50.326;19.122;2023-03-11T06:18:41;96202.92;;;15.48;51.38
66801;BME280;53703;50.326;19.122;2023-03-11T06:21:34;96211.96;;;15.49;51.43
66801;BME280;53703;50.326;19.122;2023-03-11T06:24:28;96215.81;;;15.47;51.64
66801;BME280;53703;50.326;19.122;2023-03-11T06:27:22;96228.91;;;15.48;51.62
66801;BME280;53703;50.326;19.122;2023-03-11T06:30:16;96235.90;;;15.46;51.61
66801;BME280;53703;50.326;19.122;2023-03-11T06:33:10;96239.04;;;15.43;51.58
66801;BME280;53703;50.326;19.122;2023-03-11T06:36:08;96239.44;;;15.44;51.35
66801;BME280;53703;50.326;19.122;2023-03-11T06:39:03;96243.76;;;15.40;51.33
66801;BME280;53703;50.326;19.122;2023-03-11T06:41:57;96250.59;;;15.44;51.18
66801;BME280;53703;50.326;19.122;2023-03-11T06:44:50;96252.78;;;15.40;51.07
66801;BME280;53703;50.326;19.122;2023-03-11T06:47:44;96262.75;;;15.39;51.32
66801;BME280;53703;50.326;19.122;2023-03-11T06:50:37;96267.63;;;15.40;51.43
66801;BME280;53703;50.326;19.122;2023-03-11T06:53:31;96267.71;;;15.44;51.51
66801;BME280;53703;50.326;19.122;2023-03-11T06:56:25;96274.38;;;15.44;51.48
66801;BME280;53703;50.326;19.122;2023-03-11T06:59:19;96272.73;;;15.46;51.42
66801;BME280;53703;50.326;19.122;2023-03-11T07:02:14;96283.65;;;15.39;51.26
66801;BME280;53703;50.326;19.122;2023-03-11T07:05:10;96286.94;;;15.36;51.31
66801;BME280;53703;50.326;19.122;2023-03-11T07:08:05;96294.40;;;15.35;51.32
66801;BME280;53703;50.326;19.122;2023-03-11T07:11:09;96297.45;;;15.39;51.47
66801;BME280;53703;50.326;19.122;2023-03-11T07:14:05;96299.04;;;15.37;51.35
66801;BME280;53703;50.326;19.122;2023-03-11T07:16:59;96301.38;;;15.36;51.33
66801;BME280;53703;50.326;19.122;2023-03-11T07:19:53;96306.09;;;15.37;51.29
66801;BME280;53703;50.326;19.122;2023-03-11T07:22:47;96309.86;;;15.36;51.50
66801;BME280;53703;50.326;19.122;2023-03-11T07:25:46;96309.08;;;15.35;51.20
66801;BME280;53703;50.326;19.122;2023-03-11T07:28:23;96312.70;;;15.36;51.31
66801;BME280;53703;50.326;19.122;2023-03-11T07:31:20;96320.31;;;15.35;51.23
66801;BME280;53703;50.326;19.122;2023-03-11T07:34:15;96323.75;;;15.33;51.21
66801;BME280;53703;50.326;19.122;2023-03-11T07:37:09;96327.36;;;15.35;51.03
66801;BME280;53703;50.326;19.122;2023-03-11T07:40:02;96328.14;;;15.33;51.36
66801;BME280;53703;50.326;19.122;2023-03-11T07:42:56;96333.64;;;15.30;51.32
66801;BME280;53703;50.326;19.122;2023-03-11T07:45:50;96333.95;;;15.30;51.10
66801;BME280;53703;50.326;19.122;2023-03-11T07:48:44;96335.28;;;15.28;51.21
66801;BME280;53703;50.326;19.122;2023-03-11T07:51:39;96336.92;;;15.29;51.02
66801;BME280;53703;50.326;19.122;2023-03-11T07:54:20;96342.89;;;15.26;51.26
66801;BME280;53703;50.326;19.122;2023-03-11T07:57:13;96344.77;;;15.25;51.11
66801;BME280;53703;50.326;19.122;2023-03-11T08:00:11;96350.35;;;15.27;51.02
66801;BME280;53703;50.326;19.122;2023-03-11T08:03:04;96356.60;;;15.24;51.19
66801;BME280;53703;50.326;19.122;2023-03-11T08:05:58;96357.95;;;15.25;50.83
66801;BME280;53703;50.326;19.122;2023-03-11T08:08:52;96359.14;;;15.24;51.17
66801;BME280;53703;50.326;19.122;2023-03-11T08:11:46;96363.91;;;15.24;50.77
66801;BME280;53703;50.326;19.122;2023-03-11T08:14:41;96369.25;;;15.23;50.85
66801;BME280;53703;50.326;19.122;2023-03-11T08:17:35;96373.98;;;15.24;51.11
66801;BME280;53703;50.326;19.122;2023-03-11T08:20:28;96375.77;;;15.23;51.03
66801;BME280;53703;50.326;19.122;2023-03-11T08:23:22;96377.80;;;15.21;50.99
66801;BME280;53703;50.326;19.122;2023-03-11T08:25:59;96382.61;;;15.25;50.48
66801;BME280;53703;50.326;19.122;2023-03-11T08:28:57;96387.23;;;15.23;50.97
66801;BME280;53703;50.326;19.122;2023-03-11T08:31:50;96393.11;;;15.23;50.84
66801;BME280;53703;50.326;19.122;2023-03-11T08:34:44;96395.09;;;15.25;51.40
66801;BME280;53703;50.326;19.122;2023-03-11T08:37:38;96394.55;;;15.26;50.68
66801;BME280;53703;50.326;19.122;2023-03-11T08:40:32;96397.77;;;15.30;50.98
66801;BME280;53703;50.326;19.122;2023-03-11T08:43:26;96403.89;;;15.28;50.98
66801;BME280;53703;50.326;19.122;2023-03-11T08:46:25;96406.91;;;15.32;50.80
66801;BME280;53703;50.326;19.122;2023-03-11T08:49:20;96410.13;;;15.33;50.64
66801;BME280;53703;50.326;19.122;2023-03-11T08:52:13;96413.75;;;15.35;50.51
66801;BME280;53703;50.326;19.122;2023-03-11T08:55:09;96416.66;;;15.36;50.47
66801;BME280;53703;50.326;19.122;2023-03-11T08:57:52;96413.19;;;15.34;50.26
66801;BME280;53703;50.326;19.122;2023-03-11T09:00:45;96417.35;;;15.35;50.14
66801;BME280;53703;50.326;19.122;2023-03-11T09:03:40;96423.55;;;15.35;50.20
66801;BME280;53703;50.326;19.122;2023-03-11T09:06:34;96425.59;;;15.35;50.04
66801;BME280;53703;50.326;19.122;2023-03-11T09:09:28;96434.56;;;15.37;49.89
66801;BME280;53703;50.326;19.122;2023-03-11T09:12:22;96441.95;;;15.38;49.74
66801;BME280;53703;50.326;19.122;2023-03-11T09:15:16;96445.63;;;15.37;49.95
66801;BME280;53703;50.326;19.122;2023-03-11T09:18:12;96452.50;;;15.47;49.79
66801;BME280;53703;50.326;19.122;2023-03-11T09:21:07;96453.39;;;15.51;49.64
66801;BME280;53703;50.326;19.122;2023-03-11T09:24:01;96455.96;;;15.49;49.92
66801;BME280;53703;50.326;19.122;2023-03-11T09:26:56;96460.16;;;15.57;49.82
66801;BME280;53703;50.326;19.122;2023-03-11T09:29:49;96463.80;;;15.64;49.87
66801;BME280;53703;50.326;19.122;2023-03-11T09:32:43;96464.35;;;15.66;51.92
66801;BME280;53703;50.326;19.122;2023-03-11T09:35:38;96469.94;;;15.63;52.11
66801;BME280;53703;50.326;19.122;2023-03-11T09:38:32;96471.05;;;15.66;52.05
66801;BME280;53703;50.326;19.122;2023-03-11T09:41:33;96475.44;;;15.66;51.67
66801;BME280;53703;50.326;19.122;2023-03-11T09:44:52;96478.97;;;15.65;51.00
66801;BME280;53703;50.326;19.122;2023-03-11T09:48:02;96481.52;;;15.57;51.64
66801;BME280;53703;50.326;19.122;2023-03-11T09:51:02;96489.94;;;15.57;51.31
66801;BME280;53703;50.326;19.122;2023-03-11T09:54:07;96490.98;;;15.61;50.93
66801;BME280;53703;50.326;19.122;2023-03-11T09:57:04;96494.20;;;15.62;51.10
66801;BME280;53703;50.326;19.122;2023-03-11T09:59:59;96504.23;;;15.72;50.54
66801;BME280;53703;50.326;19.122;2023-03-11T10:02:56;96510.33;;;15.85;49.85
66801;BME280;53703;50.326;19.122;2023-03-11T10:05:51;96513.60;;;15.95;49.70
66801;BME280;53703;50.326;19.122;2023-03-11T10:08:56;96516.97;;;15.92;49.72
66801;BME280;53703;50.326;19.122;2023-03-11T10:12:02;96523.12;;;15.98;49.77
66801;BME280;53703;50.326;19.122;2023-03-11T10:15:15;96529.81;;;16.03;49.39
66801;BME280;53703;50.326;19.122;2023-03-11T10:18:51;96537.78;;;16.10;49.38
66801;BME280;53703;50.326;19.122;2023-03-11T10:21:55;96542.81;;;16.13;49.03
66801;BME280;53703;50.326;19.122;2023-03-11T10:25:04;96547.87;;;16.18;48.84
66801;BME280;53703;50.326;19.122;2023-03-11T10:28:05;96551.02;;;16.19;48.86
66801;BME280;53703;50.326;19.122;2023-03-11T10:31:16;96558.13;;;16.32;48.94
66801;BME280;53703;50.326;19.122;2023-03-11T10:34:19;96567.90;;;16.94;47.50
66801;BME280;53703;50.326;19.122;2023-03-11T10:37:24;96574.89;;;16.34;45.79
66801;BME280;53703;50.326;19.122;2023-03-11T10:40:41;96588.46;;;14.07;47.20
66801;BME280;53703;50.326;19.122;2023-03-11T10:43:40;96588.77;;;16.02;45.76
66801;BME280;53703;50.326;19.122;2023-03-11T10:46:36;96597.48;;;16.70;44.39
66801;BME280;53703;50.326;19.122;2023-03-11T10:49:29;96605.91;;;16.95;44.28
66801;BME280;53703;50.326;19.122;2023-03-11T10:52:23;96613.80;;;17.02;44.55
66801;BME280;53703;50.326;19.122;2023-03-11T10:55:19;96613.98;;;17.11;44.86
66801;BME280;53703;50.326;19.122;2023-03-11T10:58:16;96623.84;;;17.12;45.09
66801;BME280;53703;50.326;19.122;2023-03-11T11:01:17;96629.83;;;17.25;44.99
66801;BME280;53703;50.326;19.122;2023-03-11T11:04:35;96632.81;;;17.27;45.01
66801;BME280;53703;50.326;19.122;2023-03-11T11:07:34;96643.61;;;17.25;45.08
66801;BME280;53703;50.326;19.122;2023-03-11T11:10:28;96648.80;;;17.34;45.10
66801;BME280;53703;50.326;19.122;2023-03-11T11:13:24;96658.81;;;17.41;45.14
66801;BME280;53703;50.326;19.122;2023-03-11T11:16:21;96670.30;;;17.48;45.16
66801;BME280;53703;50.326;19.122;2023-03-11T11:19:15;96674.95;;;17.55;45.01
66801;BME280;53703;50.326;19.122;2023-03-11T11:22:16;96684.33;;;17.52;45.19
66801;BME280;53703;50.326;19.122;2023-03-11T11:25:36;96695.66;;;17.59;45.12
66801;BME280;53703;50.326;19.122;2023-03-11T11:28:31;96699.30;;;17.59;45.30
66801;BME280;53703;50.326;19.122;2023-03-11T11:31:26;96709.39;;;17.60;45.29
66801;BME280;53703;50.326;19.122;2023-03-11T11:34:34;96717.59;;;17.63;45.33
66801;BME280;53703;50.326;19.122;2023-03-11T11:37:30;96729.64;;;17.60;45.49
66801;BME280;53703;50.326;19.122;2023-03-11T11:40:31;96740.05;;;17.65;45.26
66801;BME280;53703;50.326;19.122;2023-03-11T11:43:38;96756.77;;;17.69;45.28
66801;BME280;53703;50.326;19.122;2023-03-11T11:46:38;96763.06;;;17.70;45.35
66801;BME280;53703;50.326;19.122;2023-03-11T11:49:35;96770.24;;;17.77;45.22
66801;BME280;53703;50.326;19.122;2023-03-11T11:52:34;96779.08;;;17.79;45.16
66801;BME280;53703;50.326;19.122;2023-03-11T11:55:31;96788.67;;;17.64;44.91
66801;BME280;53703;50.326;19.122;2023-03-11T11:58:25;96788.77;;;17.89;44.46
66801;BME280;53703;50.326;19.122;2023-03-11T12:01:36;96800.81;;;16.76;44.53
66801;BME280;53703;50.326;19.122;2023-03-11T12:04:52;96810.20;;;17.79;43.25
66801;BME280;53703;50.326;19.122;2023-03-11T12:07:59;96822.76;;;17.89;43.74
66801;BME280;53703;50.326;19.122;2023-03-11T12:11:01;96829.38;;;18.03;43.48
66801;BME280;53703;50.326;19.122;2023-03-11T12:14:04;96839.55;;;17.97;43.77
66801;BME280;53703;50.326;19.122;2023-03-11T12:17:05;96845.64;;;17.28;48.52
66801;BME280;53703;50.326;19.122;2023-03-11T12:20:04;96853.07;;;17.14;47.22
66801;BME280;53703;50.326;19.122;2023-03-11T12:23:18;96864.20;;;17.18;45.77
66801;BME280;53703;50.326;19.122;2023-03-11T12:26:21;96871.98;;;17.16;45.70
66801;BME280;53703;50.326;19.122;2023-03-11T12:29:25;96876.27;;;17.25;45.85
66801;BME280;53703;50.326;19.122;2023-03-11T12:32:28;96880.91;;;17.45;45.88
66801;BME280;53703;50.326;19.122;2023-03-11T12:35:26;96885.98;;;17.31;45.28
66801;BME280;53703;50.326;19.122;2023-03-11T12:38:27;96895.34;;;17.24;45.31
66801;BME280;53703;50.326;19.122;2023-03-11T12:41:35;96905.10;;;17.26;45.16
66801;BME280;53703;50.326;19.122;2023-03-11T12:44:31;96912.26;;;17.22;45.30
66801;BME280;53703;50.326;19.122;2023-03-11T12:47:28;96920.88;;;17.26;45.15
66801;BME280;53703;50.326;19.122;2023-03-11T12:50:41;96925.11;;;17.24;45.27
66801;BME280;53703;50.326;19.122;2023-03-11T12:53:47;96938.14;;;17.32;44.89
66801;BME280;53703;50.326;19.122;2023-03-11T12:56:43;96947.69;;;17.20;45.31
66801;BME280;53703;50.326;19.122;2023-03-11T13:00:14;96957.84;;;17.18;45.79
66801;BME280;53703;50.326;19.122;2023-03-11T13:03:35;96961.08;;;17.34;44.96
66801;BME280;53703;50.326;19.122;2023-03-11T13:07:28;96974.73;;;17.42;44.48
66801;BME280;53703;50.326;19.122;2023-03-11T13:10:39;96985.00;;;17.47;44.03
66801;BME280;53703;50.326;19.122;2023-03-11T13:13:41;96995.56;;;17.48;43.81
66801;BME280;53703;50.326;19.122;2023-03-11T13:16:44;97012.27;;;16.51;43.25
66801;BME280;53703;50.326;19.122;2023-03-11T13:19:53;97023.48;;;16.07;44.83
66801;BME280;53703;50.326;19.122;2023-03-11T13:23:28;97031.38;;;15.96;44.86
66801;BME280;53703;50.326;19.122;2023-03-11T13:26:44;97046.27;;;15.88;45.07
66801;BME280;53703;50.326;19.122;2023-03-11T13:29:55;97050.73;;;16.05;44.81
66801;BME280;53703;50.326;19.122;2023-03-11T13:33:16;97061.13;;;16.77;44.61
66801;BME280;53703;50.326;19.122;2023-03-11T13:36:31;97069.56;;;17.14;43.50
66801;BME280;53703;50.326;19.122;2023-03-11T13:39:40;97076.49;;;17.35;43.36
66801;BME280;53703;50.326;19.122;2023-03-11T13:42:39;97084.12;;;17.34;43.18
66801;BME280;53703;50.326;19.122;2023-03-11T13:45:36;97091.70;;;17.36;43.25
66801;BME280;53703;50.326;19.122;2023-03-11T13:48:32;97091.67;;;17.30;42.97
66801;BME280;53703;50.326;19.122;2023-03-11T13:51:34;97102.50;;;17.25;43.06
66801;BME280;53703;50.326;19.122;2023-03-11T13:54:45;97107.04;;;17.33;43.05
66801;BME280;53703;50.326;19.122;2023-03-11T13:57:40;97112.55;;;17.21;42.71
66801;BME280;53703;50.326;19.122;2023-03-11T14:00:49;97123.90;;;17.35;42.98
66801;BME280;53703;50.326;19.122;2023-03-11T14:03:46;97129.56;;;17.43;42.48
66801;BME280;53703;50.326;19.122;2023-03-11T14:06:40;97142.92;;;17.37;42.43
66801;BME280;53703;50.326;19.122;2023-03-11T14:09:37;97149.33;;;17.42;42.60
66801;BME280;53703;50.326;19.122;2023-03-11T14:12:32;97149.05;;;17.34;42.58
66801;BME280;53703;50.326;19.122;2023-03-11T14:15:27;97160.46;;;17.35;42.14
66801;BME280;53703;50.326;19.122;2023-03-11T14:18:38;97168.27;;;17.35;42.11
66801;BME280;53703;50.326;19.122;2023-03-11T14:21:33;97173.92;;;17.43;42.09
66801;BME280;53703;50.326;19.122;2023-03-11T14:24:29;97179.73;;;17.40;42.25
66801;BME280;53703;50.326;19.122;2023-03-11T14:27:23;97179.19;;;17.40;42.12
66801;BME280;53703;50.326;19.122;2023-03-11T14:30:24;97186.60;;;17.41;41.91
66801;BME280;53703;50.326;19.122;2023-03-11T14:33:21;97194.06;;;17.48;41.86
66801;BME280;53703;50.326;19.122;2023-03-11T14:36:15;97201.09;;;17.60;41.59
66801;BME280;53703;50.326;19.122;2023-03-11T14:39:28;97205.09;;;17.47;41.91
66801;BME280;53703;50.326;19.122;2023-03-11T14:42:26;97216.04;;;17.46;41.96
66801;BME280;53703;50.326;19.122;2023-03-11T14:45:23;97222.44;;;17.49;41.69
66801;BME280;53703;50.326;19.122;2023-03-11T14:48:23;97237.02;;;17.48;41.71
66801;BME280;53703;50.326;19.122;2023-03-11T14:51:23;97242.80;;;17.53;41.42
66801;BME280;53703;50.326;19.122;2023-03-11T14:54:23;97248.70;;;16.70;40.44
66801;BME280;53703;50.326;19.122;2023-03-11T14:57:23;97257.16;;;17.28;41.35
66801;BME280;53703;50.326;19.122;2023-03-11T15:00:23;97256.70;;;17.47;41.00
66801;BME280;53703;50.326;19.122;2023-03-11T15:03:24;97257.54;;;17.43;41.20
66801;BME280;53703;50.326;19.122;2023-03-11T15:06:20;97257.64;;;17.57;40.86
66801;BME280;53703;50.326;19.122;2023-03-11T15:09:19;97263.11;;;17.60;41.20
66801;BME280;53703;50.326;19.122;2023-03-11T15:12:34;97266.77;;;17.62;41.29
66801;BME280;53703;50.326;19.122;2023-03-11T15:15:30;97274.67;;;17.57;41.43
66801;BME280;53703;50.326;19.122;2023-03-11T15:18:30;97281.87;;;17.59;41.34
66801;BME280;53703;50.326;19.122;2023-03-11T15:21:25;97289.81;;;17.57;41.54
66801;BME280;53703;50.326;19.122;2023-03-11T15:24:22;97296.20;;;17.49;41.48
66801;BME280;53703;50.326;19.122;2023-03-11T15:27:29;97295.17;;;17.58;41.12